Greenville-Spartanburg International Airport Airport (GSP)

Airport Diagram
Current Weather/Forecast (VFR Conditions)
METAR KGSP 241253Z 35005KT 10SM CLR 21/19 A2996 RMK AO2 SLP136 T02110189
TAF KGSP 241130Z 2412/2512 26005KT 6SM BR BKN250 TEMPO 2412/2413 4SM BR SCT002 FM241300 26005KT P6SM SCT035 BKN220 FM241900 26005KT P6SM VCTS SCT050CB PROB30 2421/2501 4SM TSRA BR OVC025CB FM250100 28003KT P6SM BKN060 FM250800 VRB02KT 5SM BR BKN110

All Charts
General
Chart Name Download
AIRPORT DIAGRAM
TAKEOFF MINIMUMS
ALTERNATE MINIMUMS

Departures
Chart Name Download
BIMMR THREE (RNAV)
BWALL TWO (RNAV)

Arrivals
Chart Name Download
JUNNR THREE (RNAV)
MCHLN TWO (RNAV)
RCTOR TWO (RNAV)
WORXS TWO (RNAV)

Approaches
Chart Name Download
ILS OR LOC RWY 04
ILS OR LOC RWY 22
ILS RWY 04 (SA CAT I)
ILS RWY 04 (CAT II - III)
RNAV (GPS) RWY 04
RNAV (GPS) RWY 22


Inbound Traffic (Arrivals)

No inbound traffic.


Outbound Traffic (Departures)

No outbound traffic.